createdAt,value
2023-02-05T00:01:53.264Z,72.91
2023-02-05T00:04:22.713Z,73.15
2023-02-05T00:06:56.886Z,72.43
2023-02-05T00:09:28.976Z,72.05
2023-02-05T00:11:59.521Z,71.89
2023-02-05T00:14:29.873Z,71.62
2023-02-05T00:17:01.732Z,71.78
2023-02-05T00:19:31.874Z,71.63
2023-02-05T00:22:03.137Z,71.35
2023-02-05T00:24:32.565Z,71.47
2023-02-05T00:27:02.005Z,71.61
2023-02-05T00:29:32.430Z,72.12
2023-02-05T00:32:05.615Z,72.39
2023-02-05T00:34:36.047Z,72.04
2023-02-05T00:37:05.824Z,72.38
2023-02-05T00:39:37.766Z,72.32
2023-02-05T00:42:10.240Z,72.48
2023-02-05T00:44:41.623Z,72.70
2023-02-05T00:47:12.977Z,72.74
2023-02-05T00:49:43.439Z,72.70
2023-02-05T00:52:14.960Z,72.60
2023-02-05T00:54:46.980Z,72.34
2023-02-05T00:57:17.344Z,72.35
2023-02-05T00:59:52.949Z,72.61
2023-02-05T01:02:28.545Z,72.38
2023-02-05T01:04:58.325Z,72.46
2023-02-05T01:07:27.842Z,71.91
2023-02-05T01:09:58.270Z,71.22
2023-02-05T01:12:29.296Z,71.88
2023-02-05T01:15:05.659Z,72.23
2023-02-05T01:17:36.746Z,72.47
2023-02-05T01:20:08.092Z,71.66
2023-02-05T01:22:38.715Z,70.86
2023-02-05T01:25:09.159Z,70.79
2023-02-05T01:27:39.301Z,71.05
2023-02-05T01:30:16.618Z,71.06
2023-02-05T01:32:47.978Z,71.71
2023-02-05T01:35:16.830Z,72.36
2023-02-05T01:37:46.326Z,72.56
2023-02-05T01:40:20.018Z,72.72
2023-02-05T01:42:50.912Z,73.50
2023-02-05T01:45:25.407Z,73.70
2023-02-05T01:47:56.590Z,73.53
2023-02-05T01:50:28.848Z,73.07
2023-02-05T01:53:00.516Z,73.16
2023-02-05T01:55:33.240Z,73.15
2023-02-05T01:58:04.401Z,73.33
2023-02-05T02:00:35.127Z,73.51
2023-02-05T02:03:05.928Z,73.67
2023-02-05T02:05:36.057Z,73.81
2023-02-05T02:08:24.995Z,74.19
2023-02-05T02:10:57.492Z,74.43
2023-02-05T02:13:28.987Z,74.69
2023-02-05T02:15:59.756Z,74.99
2023-02-05T02:18:30.890Z,74.98
2023-02-05T02:21:20.053Z,74.88
2023-02-05T02:23:59.132Z,74.97
2023-02-05T02:26:42.947Z,75.16
2023-02-05T02:29:18.577Z,75.37
2023-02-05T02:31:58.747Z,75.47
2023-02-05T02:34:33.836Z,75.49
2023-02-05T02:37:17.426Z,75.36
2023-02-05T02:39:54.000Z,75.64
2023-02-05T02:42:38.927Z,75.58
2023-02-05T02:45:09.742Z,75.62
2023-02-05T02:47:42.518Z,75.40
2023-02-05T02:50:28.061Z,74.53
2023-02-05T02:52:58.615Z,74.24
2023-02-05T02:55:31.359Z,74.45
2023-02-05T02:58:04.787Z,74.36
2023-02-05T03:00:35.207Z,74.44
2023-02-05T03:03:07.288Z,74.48
2023-02-05T03:05:41.379Z,74.62
2023-02-05T03:08:18.505Z,74.44
2023-02-05T03:10:56.307Z,74.75
2023-02-05T03:13:25.987Z,74.72
2023-02-05T03:15:59.814Z,74.90
2023-02-05T03:18:30.232Z,75.10
2023-02-05T03:21:04.264Z,75.13
2023-02-05T03:23:35.841Z,74.97
2023-02-05T03:26:07.330Z,75.18
2023-02-05T03:28:43.922Z,75.38
2023-02-05T03:31:18.327Z,75.42
2023-02-05T03:34:06.976Z,75.42
2023-02-05T03:37:04.055Z,75.32
2023-02-05T03:39:43.039Z,75.42
2023-02-05T03:42:26.341Z,75.20
2023-02-05T03:45:02.645Z,75.34
2023-02-05T03:47:47.042Z,75.50
2023-02-05T03:50:26.828Z,75.54
2023-02-05T03:53:00.294Z,75.20
2023-02-05T03:55:32.578Z,75.25
2023-02-05T03:58:06.907Z,75.25
2023-02-05T04:00:37.298Z,75.38
2023-02-05T04:03:06.991Z,75.55
2023-02-05T04:05:37.178Z,75.62
2023-02-05T04:08:08.660Z,75.43
2023-02-05T04:10:44.226Z,75.41
2023-02-05T04:13:13.952Z,75.67
2023-02-05T04:15:45.084Z,75.49
2023-02-05T04:18:17.483Z,75.42
2023-02-05T04:20:47.865Z,75.52
2023-02-05T04:23:19.413Z,75.67
2023-02-05T04:25:52.890Z,75.67
2023-02-05T04:28:23.532Z,75.74
2023-02-05T04:30:55.227Z,75.32
2023-02-05T04:33:27.695Z,75.42
2023-02-05T04:36:01.159Z,75.43
2023-02-05T04:38:30.627Z,75.66
2023-02-05T04:41:00.512Z,75.41
2023-02-05T04:43:31.516Z,75.71
2023-02-05T04:46:05.582Z,76.03
2023-02-05T04:48:36.531Z,76.08
2023-02-05T04:51:11.992Z,76.24
2023-02-05T04:53:42.520Z,76.34
2023-02-05T04:56:13.905Z,76.14
2023-02-05T04:58:45.274Z,75.98
2023-02-05T05:01:21.572Z,76.12
2023-02-05T05:03:52.942Z,75.88
2023-02-05T05:06:24.356Z,75.94
2023-02-05T05:08:56.729Z,75.99
2023-02-05T05:11:28.029Z,76.18
2023-02-05T05:13:59.634Z,76.22
2023-02-05T05:16:31.780Z,76.26
2023-02-05T05:19:03.679Z,76.15
2023-02-05T05:21:33.896Z,76.16
2023-02-05T05:24:05.733Z,76.14
2023-02-05T05:26:49.786Z,76.13
2023-02-05T05:29:18.624Z,75.94
2023-02-05T05:31:50.109Z,75.84
2023-02-05T05:34:20.295Z,75.86
2023-02-05T05:36:49.719Z,75.58
2023-02-05T05:39:37.833Z,75.77
2023-02-05T05:42:28.649Z,75.59
2023-02-05T05:44:57.945Z,75.59
2023-02-05T05:47:30.901Z,75.68
2023-02-05T05:49:59.728Z,75.45
2023-02-05T05:52:32.398Z,75.69
2023-02-05T05:55:02.954Z,75.68
2023-02-05T05:57:33.572Z,75.86
2023-02-05T06:00:03.185Z,76.24
2023-02-05T06:02:42.439Z,76.53
2023-02-05T06:05:13.458Z,76.45
2023-02-05T06:07:44.064Z,76.60
2023-02-05T06:10:15.902Z,76.63
2023-02-05T06:12:46.979Z,76.78
2023-02-05T06:15:17.268Z,76.76
2023-02-05T06:17:46.610Z,76.65
2023-02-05T06:20:17.261Z,76.66
2023-02-05T06:22:48.622Z,76.68
2023-02-05T06:25:19.845Z,76.53
2023-02-05T06:27:49.281Z,76.41
2023-02-05T06:30:18.251Z,76.42
2023-02-05T06:32:49.956Z,76.28
2023-02-05T06:35:20.631Z,76.09
2023-02-05T06:37:58.747Z,76.07
2023-02-05T06:40:31.064Z,76.38
2023-02-05T06:43:03.461Z,76.27
2023-02-05T06:45:34.778Z,76.24
2023-02-05T06:48:06.620Z,76.07
2023-02-05T06:50:37.148Z,76.32
2023-02-05T06:53:06.934Z,76.35
2023-02-05T06:55:38.022Z,76.08
2023-02-05T06:58:10.309Z,76.15
2023-02-05T07:00:42.915Z,76.01
2023-02-05T07:03:13.524Z,75.89
2023-02-05T07:05:45.015Z,76.02
2023-02-05T07:08:14.946Z,76.15
2023-02-05T07:10:47.117Z,76.14
2023-02-05T07:13:16.395Z,76.21
2023-02-05T07:15:46.852Z,76.02
2023-02-05T07:18:19.171Z,76.38
2023-02-05T07:20:49.600Z,76.27
2023-02-05T07:23:20.346Z,76.38
2023-02-05T07:25:49.229Z,76.60
2023-02-05T07:28:21.376Z,76.50
2023-02-05T07:30:52.956Z,76.52
2023-02-05T07:33:23.337Z,76.25
2023-02-05T07:35:52.560Z,75.91
2023-02-05T07:38:23.448Z,75.74
2023-02-05T07:40:54.264Z,75.55
2023-02-05T07:43:24.348Z,75.42
2023-02-05T07:46:01.206Z,75.59
2023-02-05T07:48:30.856Z,75.70
2023-02-05T07:51:00.109Z,75.76
2023-02-05T07:53:30.423Z,75.64
2023-02-05T07:56:03.889Z,75.47
2023-02-05T07:58:35.178Z,75.09
2023-02-05T08:01:04.838Z,75.01
2023-02-05T08:03:35.753Z,74.93
2023-02-05T08:06:07.661Z,75.12
2023-02-05T08:08:38.224Z,75.03
2023-02-05T08:11:08.344Z,75.23
2023-02-05T08:13:41.012Z,75.18
2023-02-05T08:16:11.544Z,75.21
2023-02-05T08:18:42.190Z,75.34
2023-02-05T08:21:12.796Z,75.76
2023-02-05T08:23:41.559Z,75.45
2023-02-05T08:26:11.902Z,75.35
2023-02-05T08:28:43.299Z,73.65
2023-02-05T08:31:19.368Z,74.17
2023-02-05T08:33:53.328Z,74.41
2023-02-05T08:36:26.791Z,72.88
2023-02-05T08:38:58.994Z,71.58
2023-02-05T08:41:29.405Z,71.26
2023-02-05T08:43:59.482Z,71.70
2023-02-05T08:46:40.370Z,72.01
2023-02-05T08:49:17.464Z,71.90
2023-02-05T08:51:48.344Z,71.98
2023-02-05T08:54:18.421Z,72.24
2023-02-05T08:56:50.223Z,71.42
2023-02-05T08:59:20.116Z,71.54
2023-02-05T09:01:50.422Z,71.32
2023-02-05T09:04:22.661Z,71.32
2023-02-05T09:06:52.315Z,71.61
2023-02-05T09:09:23.654Z,71.75
2023-02-05T09:11:54.971Z,70.11
2023-02-05T09:14:24.091Z,68.42
2023-02-05T09:16:54.142Z,65.91
2023-02-05T09:19:26.242Z,64.15
2023-02-05T09:21:55.287Z,62.99
2023-02-05T09:24:27.802Z,62.36
2023-02-05T09:26:57.644Z,61.74
2023-02-05T09:29:29.820Z,59.35
2023-02-05T09:31:59.613Z,59.43
2023-02-05T09:34:28.741Z,57.36
2023-02-05T09:37:00.782Z,57.13
2023-02-05T09:43:05.803Z,54.13
2023-02-05T09:45:51.984Z,54.52
2023-02-05T09:48:23.046Z,54.62
2023-02-05T09:50:57.238Z,54.28
2023-02-05T09:53:33.841Z,55.02
2023-02-05T09:56:07.788Z,54.85
2023-02-05T09:58:41.789Z,54.63
2023-02-05T10:01:20.796Z,54.05
2023-02-05T10:03:56.558Z,55.12
2023-02-05T10:06:47.188Z,54.62
2023-02-05T10:09:34.448Z,53.68
2023-02-05T10:12:15.462Z,53.86
2023-02-05T10:14:49.180Z,51.65
2023-02-05T10:17:30.059Z,52.24
2023-02-05T10:20:22.276Z,55.61
2023-02-05T10:22:56.294Z,57.48
2023-02-05T10:25:45.485Z,58.52
2023-02-05T10:28:25.790Z,58.39
2023-02-05T10:31:09.829Z,54.50
2023-02-05T10:33:48.622Z,52.23
2023-02-05T10:36:22.280Z,52.62
2023-02-05T10:38:58.977Z,52.72
2023-02-05T10:41:28.402Z,52.13
2023-02-05T10:44:29.929Z,52.62
2023-02-05T10:47:06.396Z,53.30
2023-02-05T10:49:50.761Z,52.19
2023-02-05T10:52:24.454Z,51.34
2023-02-05T10:54:57.880Z,51.51
2023-02-05T10:57:31.839Z,50.19
2023-02-05T11:00:05.963Z,49.83
2023-02-05T11:02:39.587Z,53.84
2023-02-05T11:05:16.792Z,53.53
2023-02-05T11:07:49.617Z,53.36
2023-02-05T11:10:21.941Z,54.23
2023-02-05T11:12:56.445Z,53.48
2023-02-05T11:15:32.996Z,55.60
2023-02-05T11:18:07.413Z,55.34
2023-02-05T11:20:38.713Z,55.11
2023-02-05T11:23:08.418Z,53.40
2023-02-05T11:25:49.029Z,53.28
2023-02-05T11:28:30.830Z,51.91
2023-02-05T11:31:20.069Z,51.64
2023-02-05T11:33:50.282Z,52.68
2023-02-05T11:36:24.162Z,54.36
2023-02-05T11:38:57.944Z,55.73
2023-02-05T11:41:51.014Z,54.40
2023-02-05T11:44:25.606Z,54.53
2023-02-05T11:47:00.263Z,53.51
2023-02-05T11:49:46.085Z,54.13
2023-02-05T11:52:26.982Z,57.06
2023-02-05T11:54:57.583Z,59.78
2023-02-05T11:57:36.621Z,58.67
2023-02-05T12:00:12.180Z,57.60
2023-02-05T12:02:42.666Z,58.86
2023-02-05T12:05:20.691Z,61.68
2023-02-05T12:08:03.961Z,62.47
2023-02-05T12:10:41.211Z,61.12
2023-02-05T12:13:34.829Z,60.11
2023-02-05T12:16:09.540Z,59.73
2023-02-05T12:18:57.484Z,60.46
2023-02-05T12:22:02.229Z,61.40
2023-02-05T12:24:53.611Z,62.02
2023-02-05T12:27:41.469Z,62.92
2023-02-05T12:30:35.639Z,62.92
2023-02-05T12:33:24.492Z,62.09
2023-02-05T12:36:17.734Z,62.35
2023-02-05T12:38:48.472Z,63.03
2023-02-05T12:41:36.722Z,64.01
2023-02-05T12:44:26.213Z,64.92
2023-02-05T12:47:28.097Z,64.79
2023-02-05T12:50:05.712Z,63.12
2023-02-05T12:52:42.466Z,63.99
2023-02-05T12:55:19.113Z,64.35
2023-02-05T12:57:54.973Z,64.30
2023-02-05T13:00:31.646Z,64.65
2023-02-05T13:03:03.543Z,64.91
2023-02-05T13:05:39.459Z,64.94
2023-02-05T13:08:14.181Z,64.09
2023-02-05T13:11:09.647Z,64.90
2023-02-05T13:13:58.003Z,64.30
2023-02-05T13:16:34.973Z,65.28
2023-02-05T13:19:16.665Z,63.98
2023-02-05T13:22:05.690Z,64.29
2023-02-05T13:25:01.529Z,64.31
2023-02-05T13:27:59.811Z,64.71
2023-02-05T13:30:40.164Z,65.15
2023-02-05T13:33:11.013Z,64.79
2023-02-05T13:36:07.561Z,64.35
2023-02-05T13:38:51.755Z,64.78
2023-02-05T13:41:38.329Z,64.81
2023-02-05T13:44:29.775Z,64.53
2023-02-05T13:47:02.051Z,64.83
2023-02-05T13:49:43.370Z,64.75
2023-02-05T13:52:49.606Z,64.34
2023-02-05T13:55:27.021Z,64.95
2023-02-05T14:08:28.924Z,62.63
2023-02-05T14:11:13.372Z,62.94
2023-02-05T14:13:43.242Z,63.71
2023-02-05T14:16:27.227Z,63.44
2023-02-05T14:19:02.656Z,62.98
2023-02-05T14:21:32.413Z,62.69
2023-02-05T14:24:05.493Z,61.72
2023-02-05T14:26:51.639Z,62.13
2023-02-05T14:29:38.755Z,62.03
2023-02-05T14:32:13.126Z,61.53
2023-02-05T14:34:49.285Z,61.47
2023-02-05T14:37:36.368Z,61.09
2023-02-05T14:40:26.044Z,61.03
2023-02-05T14:43:10.860Z,60.23
2023-02-05T14:45:49.984Z,59.50
2023-02-05T14:48:24.035Z,58.38
2023-02-05T14:51:04.566Z,58.09
2023-02-05T14:53:38.222Z,57.86
2023-02-05T14:56:08.467Z,58.13
2023-02-05T14:58:45.642Z,57.46
2023-02-05T15:01:32.994Z,57.22
2023-02-05T15:04:06.053Z,56.76
2023-02-05T15:06:43.241Z,57.09
2023-02-05T15:09:21.271Z,57.05
2023-02-05T15:12:11.929Z,56.87
2023-02-05T15:14:52.106Z,56.41
2023-02-05T15:17:53.095Z,56.84
2023-02-05T15:20:42.823Z,57.60
2023-02-05T15:23:17.046Z,58.12
2023-02-05T15:25:58.241Z,58.17
2023-02-05T15:28:39.692Z,58.38
2023-02-05T15:31:20.534Z,58.67
2023-02-05T15:33:58.007Z,58.76
2023-02-05T15:36:34.528Z,58.62
2023-02-05T15:39:27.042Z,57.87
2023-02-05T15:42:01.094Z,57.94
2023-02-05T15:44:34.107Z,57.86
2023-02-05T15:47:10.433Z,57.80
2023-02-05T15:49:46.635Z,57.29
2023-02-05T15:52:18.681Z,56.77
2023-02-05T15:54:57.188Z,57.17
2023-02-05T15:57:30.978Z,57.01
2023-02-05T16:00:10.076Z,57.11
2023-02-05T16:02:46.605Z,57.13
2023-02-05T16:05:24.200Z,56.92
2023-02-05T16:07:58.085Z,56.96
2023-02-05T16:10:33.665Z,57.39
2023-02-05T16:13:04.627Z,57.78
2023-02-05T16:15:37.168Z,58.09
2023-02-05T16:18:14.571Z,57.95
2023-02-05T16:20:47.392Z,58.06
2023-02-05T16:23:44.708Z,58.27
2023-02-05T16:26:25.298Z,58.07
2023-02-05T16:28:59.983Z,57.93
2023-02-05T16:31:31.434Z,58.11
2023-02-05T16:34:09.950Z,58.37
2023-02-05T16:36:44.495Z,58.48
2023-02-05T16:39:36.827Z,58.04
2023-02-05T16:42:10.424Z,58.20
2023-02-05T16:44:50.843Z,58.43
2023-02-05T16:47:25.429Z,58.40
2023-02-05T16:50:00.365Z,58.60
2023-02-05T16:52:37.037Z,58.66
2023-02-05T16:55:16.950Z,58.90
2023-02-05T16:57:50.885Z,58.53
2023-02-05T17:00:41.251Z,58.48
2023-02-05T17:03:21.047Z,58.74
2023-02-05T17:05:58.777Z,58.87
2023-02-05T17:08:34.571Z,59.08
2023-02-05T17:11:07.292Z,59.22
2023-02-05T17:13:54.945Z,59.12
2023-02-05T17:16:41.719Z,59.10
2023-02-05T17:19:30.714Z,59.11
2023-02-05T17:22:18.424Z,58.90
2023-02-05T17:25:03.168Z,58.88
2023-02-05T17:27:38.764Z,58.59
2023-02-05T17:30:17.157Z,57.83
2023-02-05T17:32:52.266Z,57.69
2023-02-05T17:35:29.147Z,58.01
2023-02-05T17:38:01.158Z,58.25
2023-02-05T17:40:33.165Z,58.48
2023-02-05T17:43:06.340Z,58.54
2023-02-05T17:45:40.691Z,58.50
2023-02-05T17:48:12.401Z,58.68
2023-02-05T17:50:46.810Z,58.77
2023-02-05T17:53:20.290Z,58.12
2023-02-05T17:55:51.642Z,58.02
2023-02-05T17:58:23.204Z,58.35
2023-02-05T18:00:55.679Z,58.58
2023-02-05T18:03:29.754Z,58.69
2023-02-05T18:06:02.994Z,58.57
2023-02-05T18:08:43.209Z,58.62
2023-02-05T18:11:17.337Z,58.50
2023-02-05T18:13:51.706Z,58.58
2023-02-05T18:16:23.403Z,58.40
2023-02-05T18:18:59.461Z,58.65
2023-02-05T18:21:33.698Z,58.88
2023-02-05T18:24:08.111Z,59.06
2023-02-05T18:26:41.296Z,58.99
2023-02-05T18:29:15.289Z,58.79
2023-02-05T18:31:47.316Z,58.86
2023-02-05T18:34:20.352Z,59.11
2023-02-05T18:36:55.711Z,59.28
2023-02-05T18:39:29.022Z,59.47
2023-02-05T18:42:01.727Z,59.29
2023-02-05T18:44:34.891Z,59.03
2023-02-05T18:47:07.000Z,58.38
2023-02-05T18:49:41.629Z,58.25
2023-02-05T18:52:14.175Z,58.46
2023-02-05T18:54:46.864Z,58.62
2023-02-05T18:57:17.602Z,58.62
2023-02-05T18:59:54.252Z,58.84
2023-02-05T19:02:26.022Z,58.91
2023-02-05T19:04:57.005Z,58.82
2023-02-05T19:07:29.997Z,58.92
2023-02-05T19:10:02.729Z,59.19
2023-02-05T19:12:36.070Z,59.46
2023-02-05T19:15:08.648Z,59.53
2023-02-05T19:17:44.518Z,59.33
2023-02-05T19:20:14.789Z,59.28
2023-02-05T19:22:47.836Z,59.03
2023-02-05T19:25:19.995Z,59.21
2023-02-05T19:27:54.066Z,59.66
2023-02-05T19:30:27.627Z,59.77
2023-02-05T19:33:01.201Z,59.87
2023-02-05T19:35:34.797Z,59.89
2023-02-05T19:38:07.885Z,59.95
2023-02-05T19:40:42.397Z,59.89
2023-02-05T19:43:19.400Z,59.67
2023-02-05T19:45:53.706Z,59.54
2023-02-05T19:48:27.600Z,59.41
2023-02-05T19:51:05.123Z,59.58
2023-02-05T19:53:39.152Z,59.94
2023-02-05T19:56:14.414Z,60.11
2023-02-05T19:58:51.066Z,60.08
2023-02-05T20:01:30.156Z,60.16
2023-02-05T20:04:04.379Z,60.10
2023-02-05T20:06:35.923Z,60.39
2023-02-05T20:09:11.602Z,60.43
2023-02-05T20:14:28.400Z,60.40
2023-02-05T20:17:02.251Z,60.36
2023-02-05T20:19:33.398Z,60.32
2023-02-05T20:22:08.371Z,60.30
2023-02-05T20:24:41.335Z,60.34
2023-02-05T20:27:14.586Z,60.33
2023-02-05T20:30:05.248Z,60.15
2023-02-05T20:32:36.498Z,59.87
2023-02-05T20:35:10.653Z,59.74
2023-02-05T20:37:46.090Z,59.68
2023-02-05T20:40:17.254Z,59.88
2023-02-05T20:42:49.406Z,60.01
2023-02-05T20:45:20.510Z,59.91
2023-02-05T20:47:55.119Z,60.01
2023-02-05T20:50:31.009Z,60.06
2023-02-05T20:53:04.094Z,59.93
2023-02-05T20:55:35.653Z,59.62
2023-02-05T20:58:08.308Z,59.63
2023-02-05T21:00:41.397Z,59.83
2023-02-05T21:03:11.924Z,59.89
2023-02-05T21:05:45.575Z,60.02
2023-02-05T21:08:16.107Z,60.09
2023-02-05T21:10:47.520Z,60.08
2023-02-05T21:13:17.457Z,60.06
2023-02-05T21:16:00.665Z,60.24
2023-02-05T21:18:31.453Z,60.17
2023-02-05T21:21:11.699Z,60.21
2023-02-05T21:23:43.061Z,60.31
2023-02-05T21:26:21.118Z,60.22
2023-02-05T21:28:55.668Z,60.04
2023-02-05T21:31:34.107Z,60.20
2023-02-05T21:34:08.598Z,60.21
2023-02-05T21:36:39.199Z,60.37
2023-02-05T21:39:13.116Z,60.23
2023-02-05T21:41:44.969Z,60.42
2023-02-05T21:44:16.223Z,60.34
2023-02-05T21:46:47.553Z,60.36
2023-02-05T21:49:17.598Z,60.60
2023-02-05T21:51:48.596Z,60.90
2023-02-05T21:54:19.864Z,60.82
2023-02-05T21:56:52.642Z,60.89
2023-02-05T21:59:23.210Z,60.97
2023-02-05T22:01:53.244Z,60.92
2023-02-05T22:04:22.074Z,60.75
2023-02-05T22:06:51.905Z,60.70
2023-02-05T22:09:21.831Z,60.74
2023-02-05T22:11:53.463Z,60.74
2023-02-05T22:14:24.466Z,60.77
2023-02-05T22:16:55.613Z,60.73
2023-02-05T22:19:27.056Z,60.71
2023-02-05T22:21:56.014Z,60.77
2023-02-05T22:24:25.665Z,61.02
2023-02-05T22:26:55.477Z,61.23
2023-02-05T22:29:25.620Z,61.08
2023-02-05T22:31:55.984Z,60.95
2023-02-05T22:34:24.999Z,60.93
2023-02-05T22:36:55.279Z,61.09
2023-02-05T22:39:24.060Z,60.93
2023-02-05T22:41:55.251Z,60.93
2023-02-05T22:44:24.241Z,60.80
2023-02-05T22:46:57.570Z,60.82
2023-02-05T22:49:29.687Z,60.96
2023-02-05T22:52:00.053Z,60.79
2023-02-05T22:54:30.061Z,60.68
2023-02-05T22:57:01.720Z,61.16
2023-02-05T22:59:30.609Z,61.25
2023-02-05T23:02:00.475Z,61.29
2023-02-05T23:04:30.505Z,61.53
2023-02-05T23:07:01.708Z,61.57
2023-02-05T23:09:30.460Z,61.31
2023-02-05T23:12:01.464Z,61.49
2023-02-05T23:14:32.050Z,61.38
2023-02-05T23:17:02.532Z,61.48
2023-02-05T23:19:32.526Z,61.18
2023-02-05T23:22:02.975Z,61.41
2023-02-05T23:24:32.004Z,61.57
2023-02-05T23:27:02.875Z,61.33
2023-02-05T23:29:32.052Z,61.41
2023-02-05T23:32:03.064Z,61.25
2023-02-05T23:34:34.138Z,61.19
2023-02-05T23:37:03.338Z,61.19
2023-02-05T23:39:34.841Z,61.34
2023-02-05T23:42:06.054Z,61.47
2023-02-05T23:44:38.125Z,61.46
2023-02-05T23:47:09.569Z,61.54
2023-02-05T23:49:39.603Z,61.55
2023-02-05T23:52:10.628Z,61.76
2023-02-05T23:54:39.946Z,62.01
2023-02-05T23:57:10.709Z,62.00
2023-02-05T23:59:41.183Z,61.52
